Main page
METAR-TAF:

METAR-TAF

Airports :

Koksijde Air Base

Koksijde, Belgium

latitude: 51-05N, longitude: 002-39E, elevation: 4 m

Current weather observation

The report was made 15 minutes ago, at 04:03 UTC
Wind 1 kt from variable directions
Temperature 1°C
Humidity 100%
Pressure 1039 hPa
Visibility: 0350 m
fog

METAR: EBFN 270403Z AUTO VRB01KT 0350 FG OVC002/// 01/01 Q1039 RED

Time: 05:18 (04:18 UTC)

Forecast

The report was made 12 hours and 37 minutes ago, at 15:41 UTC
Forecast valid from 26 at 19 UTC to 27 at 07 UTC
Wind 8 kt from the North/Northwest
Visibility 10 km or more
Few clouds at a height of 2000 ft
Temporary
from 26 at 19 UTC to 27 at 07 UTC
Wind 3 kt from variable directions
Visibility: 4000 m
mist
Probability 30% :
Temporary
from 27 at 02 UTC to 27 at 07 UTC
Visibility: 1000 m
fog

TAF: EBFN 261541Z 2619/2707 33008KT 9999 FEW020 TEMPO 2619/2707 VRB03KT 4000 BR PROB30 TEMPO 2702/2707 1000 FG

Weather observations and forecasts of more than 4000 airports (METAR and TAF reports).

The available stations are represented by yellow and red dots on the map.

Hover mouse over dot to see the name of the station.

Then click to see weather observations and forecasts.

To change the map : click on the green buttons with a black cross to zoom in, on the green button with a dash to zoom out, or on the green arrows for adjacent maps.


METAR-TAF: